sensor_id;sensor_type;location;lat;lon;timestamp;P1;durP1;ratioP1;P2;durP2;ratioP2
39896;SDS011;25567;48.276;14.242;2023-02-26T00:01:20;12.50;;;6.38;;
39896;SDS011;25567;48.276;14.242;2023-02-26T00:03:51;12.18;;;5.78;;
39896;SDS011;25567;48.276;14.242;2023-02-26T00:06:20;14.70;;;7.45;;
39896;SDS011;25567;48.276;14.242;2023-02-26T00:08:47;13.45;;;7.35;;
39896;SDS011;25567;48.276;14.242;2023-02-26T00:11:14;9.77;;;6.40;;
39896;SDS011;25567;48.276;14.242;2023-02-26T00:13:41;11.48;;;7.07;;
39896;SDS011;25567;48.276;14.242;2023-02-26T00:18:55;12.05;;;6.93;;
39896;SDS011;25567;48.276;14.242;2023-02-26T00:21:23;11.02;;;6.22;;
39896;SDS011;25567;48.276;14.242;2023-02-26T00:23:51;9.25;;;5.63;;
39896;SDS011;25567;48.276;14.242;2023-02-26T00:26:18;9.90;;;5.63;;
39896;SDS011;25567;48.276;14.242;2023-02-26T00:28:46;8.65;;;4.70;;
39896;SDS011;25567;48.276;14.242;2023-02-26T00:31:13;8.32;;;5.18;;
39896;SDS011;25567;48.276;14.242;2023-02-26T00:33:42;7.53;;;4.50;;
39896;SDS011;25567;48.276;14.242;2023-02-26T00:36:18;8.10;;;4.78;;
39896;SDS011;25567;48.276;14.242;2023-02-26T00:38:54;9.85;;;4.35;;
39896;SDS011;25567;48.276;14.242;2023-02-26T00:41:30;9.32;;;3.67;;
39896;SDS011;25567;48.276;14.242;2023-02-26T00:43:57;9.82;;;3.97;;
39896;SDS011;25567;48.276;14.242;2023-02-26T00:46:27;7.03;;;3.70;;
39896;SDS011;25567;48.276;14.242;2023-02-26T00:52:09;5.47;;;2.85;;
39896;SDS011;25567;48.276;14.242;2023-02-26T00:54:39;7.53;;;3.10;;
39896;SDS011;25567;48.276;14.242;2023-02-26T00:57:06;7.28;;;3.05;;
39896;SDS011;25567;48.276;14.242;2023-02-26T00:59:33;7.57;;;3.13;;
39896;SDS011;25567;48.276;14.242;2023-02-26T01:01:59;8.20;;;2.97;;
39896;SDS011;25567;48.276;14.242;2023-02-26T01:04:26;5.47;;;2.83;;
39896;SDS011;25567;48.276;14.242;2023-02-26T01:06:54;3.95;;;2.47;;
39896;SDS011;25567;48.276;14.242;2023-02-26T01:12:06;4.70;;;2.50;;
39896;SDS011;25567;48.276;14.242;2023-02-26T01:14:35;4.82;;;2.53;;
39896;SDS011;25567;48.276;14.242;2023-02-26T01:17:05;5.47;;;3.05;;
39896;SDS011;25567;48.276;14.242;2023-02-26T01:19:51;8.25;;;3.10;;
39896;SDS011;25567;48.276;14.242;2023-02-26T01:22:21;6.20;;;3.17;;
39896;SDS011;25567;48.276;14.242;2023-02-26T01:25:05;5.45;;;3.00;;
39896;SDS011;25567;48.276;14.242;2023-02-26T01:27:36;6.35;;;3.10;;
39896;SDS011;25567;48.276;14.242;2023-02-26T01:30:04;6.30;;;3.08;;
39896;SDS011;25567;48.276;14.242;2023-02-26T01:32:37;5.95;;;2.60;;
39896;SDS011;25567;48.276;14.242;2023-02-26T01:37:56;5.82;;;2.17;;
39896;SDS011;25567;48.276;14.242;2023-02-26T01:43:31;11.60;;;1.75;;
39896;SDS011;25567;48.276;14.242;2023-02-26T01:46:25;2.90;;;1.60;;
39896;SDS011;25567;48.276;14.242;2023-02-26T01:49:00;3.30;;;1.70;;
39896;SDS011;25567;48.276;14.242;2023-02-26T01:54:19;2.53;;;1.33;;
39896;SDS011;25567;48.276;14.242;2023-02-26T01:56:49;2.55;;;1.48;;
39896;SDS011;25567;48.276;14.242;2023-02-26T01:59:31;1.80;;;1.02;;
39896;SDS011;25567;48.276;14.242;2023-02-26T02:02:01;4.05;;;1.23;;
39896;SDS011;25567;48.276;14.242;2023-02-26T02:04:29;3.78;;;1.40;;
39896;SDS011;25567;48.276;14.242;2023-02-26T02:06:57;3.30;;;1.48;;
39896;SDS011;25567;48.276;14.242;2023-02-26T02:09:25;5.57;;;1.30;;
39896;SDS011;25567;48.276;14.242;2023-02-26T02:11:58;1.42;;;1.15;;
39896;SDS011;25567;48.276;14.242;2023-02-26T02:17:07;3.05;;;1.25;;
39896;SDS011;25567;48.276;14.242;2023-02-26T02:19:51;1.75;;;1.00;;
39896;SDS011;25567;48.276;14.242;2023-02-26T02:25:19;1.60;;;0.90;;
39896;SDS011;25567;48.276;14.242;2023-02-26T02:31:07;2.75;;;1.20;;
39896;SDS011;25567;48.276;14.242;2023-02-26T02:36:21;2.88;;;1.42;;
39896;SDS011;25567;48.276;14.242;2023-02-26T02:38:57;2.20;;;1.27;;
39896;SDS011;25567;48.276;14.242;2023-02-26T02:41:33;2.22;;;1.20;;
39896;SDS011;25567;48.276;14.242;2023-02-26T02:44:06;2.00;;;1.00;;
39896;SDS011;25567;48.276;14.242;2023-02-26T02:46:38;3.58;;;1.15;;
39896;SDS011;25567;48.276;14.242;2023-02-26T02:49:16;2.63;;;1.27;;
39896;SDS011;25567;48.276;14.242;2023-02-26T02:51:54;6.75;;;1.80;;
39896;SDS011;25567;48.276;14.242;2023-02-26T02:54:28;2.17;;;1.40;;
39896;SDS011;25567;48.276;14.242;2023-02-26T02:57:00;2.85;;;1.35;;
39896;SDS011;25567;48.276;14.242;2023-02-26T02:59:36;2.08;;;0.90;;
39896;SDS011;25567;48.276;14.242;2023-02-26T03:02:10;1.20;;;0.80;;
39896;SDS011;25567;48.276;14.242;2023-02-26T03:04:40;4.82;;;1.17;;
39896;SDS011;25567;48.276;14.242;2023-02-26T03:07:08;2.05;;;1.20;;
39896;SDS011;25567;48.276;14.242;2023-02-26T03:09:35;6.95;;;4.05;;
39896;SDS011;25567;48.276;14.242;2023-02-26T03:12:02;2.35;;;1.30;;
39896;SDS011;25567;48.276;14.242;2023-02-26T03:14:28;2.53;;;1.40;;
39896;SDS011;25567;48.276;14.242;2023-02-26T03:22:14;2.55;;;0.93;;
39896;SDS011;25567;48.276;14.242;2023-02-26T03:27:53;3.05;;;1.60;;
39896;SDS011;25567;48.276;14.242;2023-02-26T03:30:24;2.17;;;1.50;;
39896;SDS011;25567;48.276;14.242;2023-02-26T03:33:04;4.00;;;1.17;;
39896;SDS011;25567;48.276;14.242;2023-02-26T03:38:15;1.88;;;1.13;;
39896;SDS011;25567;48.276;14.242;2023-02-26T03:40:58;1.60;;;0.80;;
39896;SDS011;25567;48.276;14.242;2023-02-26T03:43:32;1.88;;;0.95;;
39896;SDS011;25567;48.276;14.242;2023-02-26T03:46:06;1.88;;;1.00;;
39896;SDS011;25567;48.276;14.242;2023-02-26T03:48:36;1.35;;;1.00;;
39896;SDS011;25567;48.276;14.242;2023-02-26T03:51:06;1.52;;;0.85;;
39896;SDS011;25567;48.276;14.242;2023-02-26T03:53:46;1.15;;;0.90;;
39896;SDS011;25567;48.276;14.242;2023-02-26T03:56:21;1.02;;;0.85;;
39896;SDS011;25567;48.276;14.242;2023-02-26T03:58:52;1.98;;;0.95;;
39896;SDS011;25567;48.276;14.242;2023-02-26T04:01:21;1.80;;;1.13;;
39896;SDS011;25567;48.276;14.242;2023-02-26T04:03:53;2.25;;;1.15;;
39896;SDS011;25567;48.276;14.242;2023-02-26T04:06:25;2.55;;;1.10;;
39896;SDS011;25567;48.276;14.242;2023-02-26T04:08:53;1.35;;;0.90;;
39896;SDS011;25567;48.276;14.242;2023-02-26T04:11:20;1.50;;;0.93;;
39896;SDS011;25567;48.276;14.242;2023-02-26T04:13:48;2.97;;;1.08;;
39896;SDS011;25567;48.276;14.242;2023-02-26T04:16:16;1.65;;;0.90;;
39896;SDS011;25567;48.276;14.242;2023-02-26T04:18:44;1.58;;;0.80;;
39896;SDS011;25567;48.276;14.242;2023-02-26T04:21:12;1.10;;;0.73;;
39896;SDS011;25567;48.276;14.242;2023-02-26T04:23:40;1.05;;;0.80;;
39896;SDS011;25567;48.276;14.242;2023-02-26T04:26:07;2.15;;;0.90;;
39896;SDS011;25567;48.276;14.242;2023-02-26T04:28:34;1.35;;;0.95;;
39896;SDS011;25567;48.276;14.242;2023-02-26T04:31:03;2.97;;;1.00;;
39896;SDS011;25567;48.276;14.242;2023-02-26T04:33:31;1.23;;;0.90;;
39896;SDS011;25567;48.276;14.242;2023-02-26T04:35:58;1.58;;;0.95;;
39896;SDS011;25567;48.276;14.242;2023-02-26T04:38:26;1.55;;;0.95;;
39896;SDS011;25567;48.276;14.242;2023-02-26T04:40:53;1.52;;;1.10;;
39896;SDS011;25567;48.276;14.242;2023-02-26T04:43:19;2.17;;;1.00;;
39896;SDS011;25567;48.276;14.242;2023-02-26T04:45:46;1.50;;;1.05;;
39896;SDS011;25567;48.276;14.242;2023-02-26T04:48:14;1.73;;;0.90;;
39896;SDS011;25567;48.276;14.242;2023-02-26T04:50:41;0.90;;;0.73;;
39896;SDS011;25567;48.276;14.242;2023-02-26T04:53:08;2.80;;;0.93;;
39896;SDS011;25567;48.276;14.242;2023-02-26T04:55:35;1.42;;;1.00;;
39896;SDS011;25567;48.276;14.242;2023-02-26T04:58:01;2.17;;;1.30;;
39896;SDS011;25567;48.276;14.242;2023-02-26T05:00:28;2.05;;;1.10;;
39896;SDS011;25567;48.276;14.242;2023-02-26T05:02:55;4.15;;;1.10;;
39896;SDS011;25567;48.276;14.242;2023-02-26T05:05:22;3.13;;;1.40;;
39896;SDS011;25567;48.276;14.242;2023-02-26T05:07:48;1.65;;;1.05;;
39896;SDS011;25567;48.276;14.242;2023-02-26T05:10:15;3.47;;;1.17;;
39896;SDS011;25567;48.276;14.242;2023-02-26T05:12:42;2.28;;;1.38;;
39896;SDS011;25567;48.276;14.242;2023-02-26T05:15:09;3.38;;;1.45;;
39896;SDS011;25567;48.276;14.242;2023-02-26T05:17:36;2.05;;;1.33;;
39896;SDS011;25567;48.276;14.242;2023-02-26T05:20:03;3.40;;;1.60;;
39896;SDS011;25567;48.276;14.242;2023-02-26T05:22:31;2.15;;;1.48;;
39896;SDS011;25567;48.276;14.242;2023-02-26T05:24:58;2.58;;;1.42;;
39896;SDS011;25567;48.276;14.242;2023-02-26T05:27:24;1.30;;;1.02;;
39896;SDS011;25567;48.276;14.242;2023-02-26T05:29:51;1.85;;;1.23;;
39896;SDS011;25567;48.276;14.242;2023-02-26T05:32:18;2.30;;;1.40;;
39896;SDS011;25567;48.276;14.242;2023-02-26T05:34:44;5.95;;;1.23;;
39896;SDS011;25567;48.276;14.242;2023-02-26T05:37:11;2.63;;;1.27;;
39896;SDS011;25567;48.276;14.242;2023-02-26T05:39:38;2.78;;;1.60;;
39896;SDS011;25567;48.276;14.242;2023-02-26T05:42:06;2.35;;;1.20;;
39896;SDS011;25567;48.276;14.242;2023-02-26T05:44:33;2.38;;;1.30;;
39896;SDS011;25567;48.276;14.242;2023-02-26T05:47:01;2.72;;;1.42;;
39896;SDS011;25567;48.276;14.242;2023-02-26T05:49:28;1.67;;;1.30;;
39896;SDS011;25567;48.276;14.242;2023-02-26T05:51:54;2.35;;;1.42;;
39896;SDS011;25567;48.276;14.242;2023-02-26T05:54:21;2.38;;;1.60;;
39896;SDS011;25567;48.276;14.242;2023-02-26T05:56:48;2.42;;;1.50;;
39896;SDS011;25567;48.276;14.242;2023-02-26T05:59:16;2.58;;;1.42;;
39896;SDS011;25567;48.276;14.242;2023-02-26T06:01:42;6.40;;;2.47;;
39896;SDS011;25567;48.276;14.242;2023-02-26T06:04:09;7.68;;;2.60;;
39896;SDS011;25567;48.276;14.242;2023-02-26T06:06:36;5.30;;;2.60;;
39896;SDS011;25567;48.276;14.242;2023-02-26T06:09:02;7.53;;;2.90;;
39896;SDS011;25567;48.276;14.242;2023-02-26T06:11:29;6.10;;;2.80;;
39896;SDS011;25567;48.276;14.242;2023-02-26T06:13:59;5.65;;;2.58;;
39896;SDS011;25567;48.276;14.242;2023-02-26T06:16:26;7.72;;;3.40;;
39896;SDS011;25567;48.276;14.242;2023-02-26T06:18:53;3.38;;;2.60;;
39896;SDS011;25567;48.276;14.242;2023-02-26T06:21:20;4.72;;;2.13;;
39896;SDS011;25567;48.276;14.242;2023-02-26T06:23:47;3.58;;;1.90;;
39896;SDS011;25567;48.276;14.242;2023-02-26T06:26:13;1.95;;;1.30;;
39896;SDS011;25567;48.276;14.242;2023-02-26T06:28:40;2.83;;;1.75;;
39896;SDS011;25567;48.276;14.242;2023-02-26T06:31:07;6.82;;;2.60;;
39896;SDS011;25567;48.276;14.242;2023-02-26T06:33:35;6.50;;;3.20;;
39896;SDS011;25567;48.276;14.242;2023-02-26T06:36:02;4.18;;;2.42;;
39896;SDS011;25567;48.276;14.242;2023-02-26T06:38:29;2.40;;;1.70;;
39896;SDS011;25567;48.276;14.242;2023-02-26T06:40:56;2.83;;;1.73;;
39896;SDS011;25567;48.276;14.242;2023-02-26T06:43:22;1.88;;;1.42;;
39896;SDS011;25567;48.276;14.242;2023-02-26T06:45:49;4.40;;;2.28;;
39896;SDS011;25567;48.276;14.242;2023-02-26T06:48:16;5.28;;;2.38;;
39896;SDS011;25567;48.276;14.242;2023-02-26T06:50:42;3.65;;;1.70;;
39896;SDS011;25567;48.276;14.242;2023-02-26T06:53:09;2.88;;;1.70;;
39896;SDS011;25567;48.276;14.242;2023-02-26T06:55:40;2.70;;;1.75;;
39896;SDS011;25567;48.276;14.242;2023-02-26T06:58:09;5.30;;;2.45;;
39896;SDS011;25567;48.276;14.242;2023-02-26T07:00:36;12.63;;;5.13;;
39896;SDS011;25567;48.276;14.242;2023-02-26T07:03:03;10.95;;;4.95;;
39896;SDS011;25567;48.276;14.242;2023-02-26T07:05:30;25.40;;;9.13;;
39896;SDS011;25567;48.276;14.242;2023-02-26T07:07:57;12.15;;;4.13;;
39896;SDS011;25567;48.276;14.242;2023-02-26T07:10:24;16.85;;;8.40;;
39896;SDS011;25567;48.276;14.242;2023-02-26T07:12:50;3.13;;;1.73;;
39896;SDS011;25567;48.276;14.242;2023-02-26T07:15:17;2.30;;;1.40;;
39896;SDS011;25567;48.276;14.242;2023-02-26T07:17:44;10.07;;;3.85;;
39896;SDS011;25567;48.276;14.242;2023-02-26T07:20:10;6.80;;;2.40;;
39896;SDS011;25567;48.276;14.242;2023-02-26T07:22:44;11.02;;;4.82;;
39896;SDS011;25567;48.276;14.242;2023-02-26T07:25:11;2.72;;;1.70;;
39896;SDS011;25567;48.276;14.242;2023-02-26T07:27:38;6.32;;;2.97;;
39896;SDS011;25567;48.276;14.242;2023-02-26T07:30:09;5.65;;;2.22;;
39896;SDS011;25567;48.276;14.242;2023-02-26T07:32:36;4.68;;;2.67;;
39896;SDS011;25567;48.276;14.242;2023-02-26T07:35:03;4.10;;;1.40;;
39896;SDS011;25567;48.276;14.242;2023-02-26T07:37:30;1.90;;;1.38;;
39896;SDS011;25567;48.276;14.242;2023-02-26T07:39:56;2.42;;;1.63;;
39896;SDS011;25567;48.276;14.242;2023-02-26T07:42:23;3.00;;;1.80;;
39896;SDS011;25567;48.276;14.242;2023-02-26T07:44:50;4.13;;;1.70;;
39896;SDS011;25567;48.276;14.242;2023-02-26T07:47:17;5.07;;;2.03;;
39896;SDS011;25567;48.276;14.242;2023-02-26T07:49:44;4.72;;;2.00;;
39896;SDS011;25567;48.276;14.242;2023-02-26T07:52:11;3.13;;;1.77;;
39896;SDS011;25567;48.276;14.242;2023-02-26T07:54:37;4.20;;;2.00;;
39896;SDS011;25567;48.276;14.242;2023-02-26T07:57:04;7.68;;;2.15;;
39896;SDS011;25567;48.276;14.242;2023-02-26T07:59:31;4.28;;;2.10;;
39896;SDS011;25567;48.276;14.242;2023-02-26T08:01:57;4.60;;;1.95;;
39896;SDS011;25567;48.276;14.242;2023-02-26T08:04:24;5.88;;;2.45;;
39896;SDS011;25567;48.276;14.242;2023-02-26T08:06:51;4.97;;;2.47;;
39896;SDS011;25567;48.276;14.242;2023-02-26T08:09:20;6.80;;;3.38;;
39896;SDS011;25567;48.276;14.242;2023-02-26T08:11:47;3.80;;;2.33;;
39896;SDS011;25567;48.276;14.242;2023-02-26T08:14:14;4.63;;;2.75;;
39896;SDS011;25567;48.276;14.242;2023-02-26T08:16:40;6.25;;;2.60;;
39896;SDS011;25567;48.276;14.242;2023-02-26T08:19:07;7.05;;;3.53;;
39896;SDS011;25567;48.276;14.242;2023-02-26T08:21:34;7.13;;;3.78;;
39896;SDS011;25567;48.276;14.242;2023-02-26T08:24:00;7.68;;;3.05;;
39896;SDS011;25567;48.276;14.242;2023-02-26T08:26:27;6.55;;;3.47;;
39896;SDS011;25567;48.276;14.242;2023-02-26T08:28:54;7.35;;;3.58;;
39896;SDS011;25567;48.276;14.242;2023-02-26T08:31:20;5.88;;;2.70;;
39896;SDS011;25567;48.276;14.242;2023-02-26T08:33:47;8.70;;;3.92;;
39896;SDS011;25567;48.276;14.242;2023-02-26T08:36:14;6.75;;;3.50;;
39896;SDS011;25567;48.276;14.242;2023-02-26T08:38:40;6.03;;;3.05;;
39896;SDS011;25567;48.276;14.242;2023-02-26T08:41:07;5.47;;;3.30;;
39896;SDS011;25567;48.276;14.242;2023-02-26T08:43:34;5.38;;;3.15;;
39896;SDS011;25567;48.276;14.242;2023-02-26T08:46:01;4.45;;;2.90;;
39896;SDS011;25567;48.276;14.242;2023-02-26T08:48:28;5.47;;;2.90;;
39896;SDS011;25567;48.276;14.242;2023-02-26T08:50:55;5.80;;;3.08;;
39896;SDS011;25567;48.276;14.242;2023-02-26T08:53:22;5.97;;;3.08;;
39896;SDS011;25567;48.276;14.242;2023-02-26T08:55:49;5.60;;;3.05;;
39896;SDS011;25567;48.276;14.242;2023-02-26T08:58:17;7.20;;;3.20;;
39896;SDS011;25567;48.276;14.242;2023-02-26T09:00:45;4.65;;;2.88;;
39896;SDS011;25567;48.276;14.242;2023-02-26T09:03:12;9.32;;;3.28;;
39896;SDS011;25567;48.276;14.242;2023-02-26T09:05:39;4.80;;;2.83;;
39896;SDS011;25567;48.276;14.242;2023-02-26T09:08:06;8.30;;;3.22;;
39896;SDS011;25567;48.276;14.242;2023-02-26T09:10:34;5.85;;;3.17;;
39896;SDS011;25567;48.276;14.242;2023-02-26T09:13:00;4.95;;;3.15;;
39896;SDS011;25567;48.276;14.242;2023-02-26T09:15:27;8.45;;;3.38;;
39896;SDS011;25567;48.276;14.242;2023-02-26T09:17:54;8.02;;;3.05;;
39896;SDS011;25567;48.276;14.242;2023-02-26T09:20:20;6.90;;;3.28;;
39896;SDS011;25567;48.276;14.242;2023-02-26T09:22:47;6.38;;;3.58;;
39896;SDS011;25567;48.276;14.242;2023-02-26T09:25:14;10.30;;;4.15;;
39896;SDS011;25567;48.276;14.242;2023-02-26T09:27:41;9.90;;;4.25;;
39896;SDS011;25567;48.276;14.242;2023-02-26T09:30:08;9.27;;;4.47;;
39896;SDS011;25567;48.276;14.242;2023-02-26T09:32:36;10.93;;;4.93;;
39896;SDS011;25567;48.276;14.242;2023-02-26T09:35:03;8.63;;;5.47;;
39896;SDS011;25567;48.276;14.242;2023-02-26T09:37:30;12.00;;;5.97;;
39896;SDS011;25567;48.276;14.242;2023-02-26T09:39:57;10.25;;;5.82;;
39896;SDS011;25567;48.276;14.242;2023-02-26T09:42:27;9.02;;;5.43;;
39896;SDS011;25567;48.276;14.242;2023-02-26T09:44:56;13.90;;;5.82;;
39896;SDS011;25567;48.276;14.242;2023-02-26T09:47:26;12.38;;;6.13;;
39896;SDS011;25567;48.276;14.242;2023-02-26T09:50:12;11.20;;;5.18;;
39896;SDS011;25567;48.276;14.242;2023-02-26T09:52:46;10.50;;;4.82;;
39896;SDS011;25567;48.276;14.242;2023-02-26T09:55:18;8.73;;;4.38;;
39896;SDS011;25567;48.276;14.242;2023-02-26T09:57:50;7.30;;;3.95;;
39896;SDS011;25567;48.276;14.242;2023-02-26T10:00:23;6.68;;;3.40;;
39896;SDS011;25567;48.276;14.242;2023-02-26T10:05:45;7.03;;;3.58;;
39896;SDS011;25567;48.276;14.242;2023-02-26T10:08:38;7.43;;;3.72;;
39896;SDS011;25567;48.276;14.242;2023-02-26T10:11:16;5.22;;;3.17;;
39896;SDS011;25567;48.276;14.242;2023-02-26T10:16:49;4.70;;;2.90;;
39896;SDS011;25567;48.276;14.242;2023-02-26T10:19:22;10.13;;;3.17;;
39896;SDS011;25567;48.276;14.242;2023-02-26T10:24:30;6.82;;;3.22;;
39896;SDS011;25567;48.276;14.242;2023-02-26T10:27:08;5.50;;;3.33;;
39896;SDS011;25567;48.276;14.242;2023-02-26T10:29:45;15.65;;;6.88;;
39896;SDS011;25567;48.276;14.242;2023-02-26T10:32:36;6.88;;;3.47;;
39896;SDS011;25567;48.276;14.242;2023-02-26T10:35:08;7.00;;;3.38;;
39896;SDS011;25567;48.276;14.242;2023-02-26T10:37:43;10.13;;;3.90;;
39896;SDS011;25567;48.276;14.242;2023-02-26T10:40:36;3.78;;;2.03;;
39896;SDS011;25567;48.276;14.242;2023-02-26T10:48:12;8.82;;;2.60;;
39896;SDS011;25567;48.276;14.242;2023-02-26T10:50:58;2.78;;;1.23;;
39896;SDS011;25567;48.276;14.242;2023-02-26T10:53:31;2.78;;;1.10;;
39896;SDS011;25567;48.276;14.242;2023-02-26T10:56:03;1.75;;;0.98;;
39896;SDS011;25567;48.276;14.242;2023-02-26T10:58:36;4.45;;;1.50;;
39896;SDS011;25567;48.276;14.242;2023-02-26T11:01:03;3.63;;;1.75;;
39896;SDS011;25567;48.276;14.242;2023-02-26T11:03:40;4.55;;;1.98;;
39896;SDS011;25567;48.276;14.242;2023-02-26T11:06:09;2.83;;;1.33;;
39896;SDS011;25567;48.276;14.242;2023-02-26T11:08:43;2.17;;;1.00;;
39896;SDS011;25567;48.276;14.242;2023-02-26T11:11:33;3.22;;;1.33;;
39896;SDS011;25567;48.276;14.242;2023-02-26T11:14:02;2.26;;;1.24;;
39896;SDS011;25567;48.276;14.242;2023-02-26T11:16:29;3.42;;;1.70;;
39896;SDS011;25567;48.276;14.242;2023-02-26T11:18:57;3.83;;;1.55;;
39896;SDS011;25567;48.276;14.242;2023-02-26T11:21:27;2.35;;;1.42;;
39896;SDS011;25567;48.276;14.242;2023-02-26T11:24:01;2.30;;;1.40;;
39896;SDS011;25567;48.276;14.242;2023-02-26T11:26:34;1.83;;;1.33;;
39896;SDS011;25567;48.276;14.242;2023-02-26T11:29:03;3.17;;;1.70;;
39896;SDS011;25567;48.276;14.242;2023-02-26T11:31:30;2.05;;;1.58;;
39896;SDS011;25567;48.276;14.242;2023-02-26T11:34:00;2.38;;;1.20;;
39896;SDS011;25567;48.276;14.242;2023-02-26T11:36:30;1.55;;;1.17;;
39896;SDS011;25567;48.276;14.242;2023-02-26T11:39:01;1.65;;;1.02;;
39896;SDS011;25567;48.276;14.242;2023-02-26T11:41:44;2.47;;;1.20;;
39896;SDS011;25567;48.276;14.242;2023-02-26T11:44:14;2.83;;;1.15;;
39896;SDS011;25567;48.276;14.242;2023-02-26T11:46:49;2.97;;;1.20;;
39896;SDS011;25567;48.276;14.242;2023-02-26T11:49:19;2.72;;;1.30;;
39896;SDS011;25567;48.276;14.242;2023-02-26T11:52:00;2.92;;;1.17;;
39896;SDS011;25567;48.276;14.242;2023-02-26T11:54:39;2.55;;;1.20;;
39896;SDS011;25567;48.276;14.242;2023-02-26T11:57:06;5.18;;;1.45;;
39896;SDS011;25567;48.276;14.242;2023-02-26T11:59:42;2.28;;;1.50;;
39896;SDS011;25567;48.276;14.242;2023-02-26T12:02:14;3.25;;;1.50;;
39896;SDS011;25567;48.276;14.242;2023-02-26T12:04:44;2.35;;;1.50;;
39896;SDS011;25567;48.276;14.242;2023-02-26T12:07:15;1.75;;;1.05;;
39896;SDS011;25567;48.276;14.242;2023-02-26T12:09:43;1.83;;;1.30;;
39896;SDS011;25567;48.276;14.242;2023-02-26T12:20:25;1.70;;;1.05;;
39896;SDS011;25567;48.276;14.242;2023-02-26T12:23:16;4.43;;;1.30;;
39896;SDS011;25567;48.276;14.242;2023-02-26T12:26:07;1.90;;;1.30;;
39896;SDS011;25567;48.276;14.242;2023-02-26T12:28:53;3.50;;;1.38;;
39896;SDS011;25567;48.276;14.242;2023-02-26T12:34:24;5.88;;;0.90;;
39896;SDS011;25567;48.276;14.242;2023-02-26T12:48:27;3.60;;;0.80;;
39896;SDS011;25567;48.276;14.242;2023-02-26T12:54:13;3.60;;;0.93;;
39896;SDS011;25567;48.276;14.242;2023-02-26T12:59:47;3.30;;;0.90;;
39896;SDS011;25567;48.276;14.242;2023-02-26T13:05:02;6.13;;;1.17;;
39896;SDS011;25567;48.276;14.242;2023-02-26T13:10:23;1.73;;;0.90;;
39896;SDS011;25567;48.276;14.242;2023-02-26T13:19:02;2.65;;;1.20;;
39896;SDS011;25567;48.276;14.242;2023-02-26T13:21:41;8.52;;;1.30;;
39896;SDS011;25567;48.276;14.242;2023-02-26T13:24:14;2.78;;;1.27;;
39896;SDS011;25567;48.276;14.242;2023-02-26T13:26:47;2.90;;;1.17;;
39896;SDS011;25567;48.276;14.242;2023-02-26T13:29:17;2.95;;;1.08;;
39896;SDS011;25567;48.276;14.242;2023-02-26T13:31:52;3.75;;;0.98;;
39896;SDS011;25567;48.276;14.242;2023-02-26T13:37:07;5.07;;;1.08;;
39896;SDS011;25567;48.276;14.242;2023-02-26T13:39:46;2.67;;;1.00;;
39896;SDS011;25567;48.276;14.242;2023-02-26T13:42:39;4.88;;;1.85;;
39896;SDS011;25567;48.276;14.242;2023-02-26T13:45:17;2.38;;;0.70;;
39896;SDS011;25567;48.276;14.242;2023-02-26T13:53:32;4.05;;;1.02;;
39896;SDS011;25567;48.276;14.242;2023-02-26T13:56:17;2.83;;;1.40;;
39896;SDS011;25567;48.276;14.242;2023-02-26T13:58:48;4.00;;;1.27;;
39896;SDS011;25567;48.276;14.242;2023-02-26T14:01:30;2.03;;;0.90;;
39896;SDS011;25567;48.276;14.242;2023-02-26T14:04:08;2.35;;;1.10;;
39896;SDS011;25567;48.276;14.242;2023-02-26T14:06:48;1.55;;;0.80;;
39896;SDS011;25567;48.276;14.242;2023-02-26T14:17:59;2.95;;;1.02;;
39896;SDS011;25567;48.276;14.242;2023-02-26T14:20:29;1.88;;;0.82;;
39896;SDS011;25567;48.276;14.242;2023-02-26T14:25:40;2.50;;;1.20;;
39896;SDS011;25567;48.276;14.242;2023-02-26T14:33:46;3.63;;;1.00;;
39896;SDS011;25567;48.276;14.242;2023-02-26T14:36:33;2.65;;;1.10;;
39896;SDS011;25567;48.276;14.242;2023-02-26T14:42:06;1.42;;;1.10;;
39896;SDS011;25567;48.276;14.242;2023-02-26T14:44:40;1.88;;;1.05;;
39896;SDS011;25567;48.276;14.242;2023-02-26T14:47:10;1.70;;;1.13;;
39896;SDS011;25567;48.276;14.242;2023-02-26T14:49:39;2.20;;;1.17;;
39896;SDS011;25567;48.276;14.242;2023-02-26T14:58:01;3.25;;;1.30;;
39896;SDS011;25567;48.276;14.242;2023-02-26T15:06:25;4.47;;;1.38;;
39896;SDS011;25567;48.276;14.242;2023-02-26T15:09:06;3.17;;;1.23;;
39896;SDS011;25567;48.276;14.242;2023-02-26T15:20:21;3.90;;;1.50;;
39896;SDS011;25567;48.276;14.242;2023-02-26T15:23:05;10.45;;;3.15;;
39896;SDS011;25567;48.276;14.242;2023-02-26T15:25:45;6.85;;;1.75;;
39896;SDS011;25567;48.276;14.242;2023-02-26T15:28:22;3.85;;;1.80;;
39896;SDS011;25567;48.276;14.242;2023-02-26T15:30:52;3.42;;;1.98;;
39896;SDS011;25567;48.276;14.242;2023-02-26T15:33:21;2.30;;;1.20;;
39896;SDS011;25567;48.276;14.242;2023-02-26T15:35:50;4.85;;;1.50;;
39896;SDS011;25567;48.276;14.242;2023-02-26T15:38:19;6.15;;;1.80;;
39896;SDS011;25567;48.276;14.242;2023-02-26T15:40:46;5.07;;;1.35;;
39896;SDS011;25567;48.276;14.242;2023-02-26T15:43:20;3.78;;;1.65;;
39896;SDS011;25567;48.276;14.242;2023-02-26T15:45:51;3.75;;;1.45;;
39896;SDS011;25567;48.276;14.242;2023-02-26T15:48:21;7.22;;;1.90;;
39896;SDS011;25567;48.276;14.242;2023-02-26T15:50:55;5.07;;;1.40;;
39896;SDS011;25567;48.276;14.242;2023-02-26T15:53:30;3.00;;;1.30;;
39896;SDS011;25567;48.276;14.242;2023-02-26T15:56:04;3.80;;;1.52;;
39896;SDS011;25567;48.276;14.242;2023-02-26T15:58:36;4.00;;;1.80;;
39896;SDS011;25567;48.276;14.242;2023-02-26T16:01:13;4.60;;;1.90;;
39896;SDS011;25567;48.276;14.242;2023-02-26T16:03:42;3.80;;;1.60;;
39896;SDS011;25567;48.276;14.242;2023-02-26T16:06:11;2.40;;;1.45;;
39896;SDS011;25567;48.276;14.242;2023-02-26T16:08:40;4.20;;;1.73;;
39896;SDS011;25567;48.276;14.242;2023-02-26T16:11:07;5.07;;;1.80;;
39896;SDS011;25567;48.276;14.242;2023-02-26T16:13:36;4.68;;;1.63;;
39896;SDS011;25567;48.276;14.242;2023-02-26T16:18:53;2.97;;;1.33;;
39896;SDS011;25567;48.276;14.242;2023-02-26T16:21:23;4.93;;;1.75;;
39896;SDS011;25567;48.276;14.242;2023-02-26T16:23:58;5.53;;;1.90;;
39896;SDS011;25567;48.276;14.242;2023-02-26T16:26:30;4.30;;;2.22;;
39896;SDS011;25567;48.276;14.242;2023-02-26T16:29:01;5.22;;;1.95;;
39896;SDS011;25567;48.276;14.242;2023-02-26T16:31:32;7.05;;;2.00;;
39896;SDS011;25567;48.276;14.242;2023-02-26T16:34:02;4.13;;;1.55;;
39896;SDS011;25567;48.276;14.242;2023-02-26T16:36:35;3.88;;;1.65;;
39896;SDS011;25567;48.276;14.242;2023-02-26T16:41:33;4.25;;;1.80;;
39896;SDS011;25567;48.276;14.242;2023-02-26T16:44:02;4.35;;;1.60;;
39896;SDS011;25567;48.276;14.242;2023-02-26T16:49:16;6.93;;;1.73;;
39896;SDS011;25567;48.276;14.242;2023-02-26T16:51:47;3.80;;;1.60;;
39896;SDS011;25567;48.276;14.242;2023-02-26T16:54:21;5.47;;;1.77;;
39896;SDS011;25567;48.276;14.242;2023-02-26T16:59:41;7.15;;;2.03;;
39896;SDS011;25567;48.276;14.242;2023-02-26T17:02:14;5.85;;;1.80;;
39896;SDS011;25567;48.276;14.242;2023-02-26T17:04:45;5.18;;;1.70;;
39896;SDS011;25567;48.276;14.242;2023-02-26T17:07:19;3.75;;;1.58;;
39896;SDS011;25567;48.276;14.242;2023-02-26T17:09:53;2.88;;;1.42;;
39896;SDS011;25567;48.276;14.242;2023-02-26T17:12:28;2.97;;;1.23;;
39896;SDS011;25567;48.276;14.242;2023-02-26T17:15:10;4.72;;;1.30;;
39896;SDS011;25567;48.276;14.242;2023-02-26T17:20:09;5.18;;;1.70;;
39896;SDS011;25567;48.276;14.242;2023-02-26T17:22:36;3.00;;;1.67;;
39896;SDS011;25567;48.276;14.242;2023-02-26T17:25:03;4.55;;;1.85;;
39896;SDS011;25567;48.276;14.242;2023-02-26T17:27:32;4.65;;;1.95;;
39896;SDS011;25567;48.276;14.242;2023-02-26T17:30:01;3.58;;;1.88;;